createdAt,value
2019-03-26T00:00:37.721Z,13.50
2019-03-26T00:01:37.699Z,17.20
2019-03-26T00:02:37.675Z,16.80
2019-03-26T00:03:37.731Z,14.70
2019-03-26T00:04:37.675Z,16.00
2019-03-26T00:05:37.676Z,14.90
2019-03-26T00:06:37.640Z,14.10
2019-03-26T00:07:37.647Z,17.50
2019-03-26T00:08:37.614Z,13.60
2019-03-26T00:09:37.603Z,11.70
2019-03-26T00:10:37.591Z,16.20
2019-03-26T00:11:37.597Z,15.20
2019-03-26T00:12:37.573Z,19.60
2019-03-26T00:13:37.552Z,12.80
2019-03-26T00:14:37.557Z,14.50
2019-03-26T00:15:37.554Z,19.10
2019-03-26T00:16:37.568Z,17.20
2019-03-26T00:17:37.495Z,17.20
2019-03-26T00:18:37.545Z,13.90
2019-03-26T00:19:37.485Z,16.10
2019-03-26T00:20:37.525Z,20.00
2019-03-26T00:21:37.477Z,17.50
2019-03-26T00:22:37.472Z,14.20
2019-03-26T00:23:37.440Z,18.20
2019-03-26T00:24:37.441Z,19.90
2019-03-26T00:25:37.423Z,14.60
2019-03-26T00:26:37.468Z,12.10
2019-03-26T00:27:37.405Z,15.00
2019-03-26T00:28:37.414Z,15.80
2019-03-26T00:29:37.386Z,16.00
2019-03-26T00:30:37.369Z,16.60
2019-03-26T00:31:37.406Z,12.40
2019-03-26T00:32:37.344Z,19.80
2019-03-26T00:33:37.363Z,17.10
2019-03-26T00:34:37.521Z,16.50
2019-03-26T00:45:11.501Z,23.90
2019-03-26T00:46:12.450Z,18.20
2019-03-26T00:47:12.512Z,16.00
2019-03-26T00:48:12.420Z,17.70
2019-03-26T00:49:12.409Z,15.60
2019-03-26T00:50:12.445Z,18.60
2019-03-26T00:51:12.403Z,21.50
2019-03-26T00:52:12.387Z,14.60
2019-03-26T00:53:12.363Z,14.50
2019-03-26T00:54:12.355Z,17.30
2019-03-26T00:55:22.020Z,16.40
2019-03-26T00:56:12.345Z,17.90
2019-03-26T00:57:12.330Z,16.50
2019-03-26T00:58:12.342Z,17.60
2019-03-26T00:59:12.308Z,15.00
2019-03-26T01:00:12.301Z,17.50
2019-03-26T01:01:12.285Z,20.50
2019-03-26T01:02:12.283Z,17.90
2019-03-26T01:03:12.286Z,16.60
2019-03-26T01:04:12.259Z,21.00
2019-03-26T01:05:12.239Z,19.80
2019-03-26T01:06:12.265Z,17.80
2019-03-26T01:07:12.227Z,22.10
2019-03-26T01:08:12.233Z,18.30
2019-03-26T01:09:12.224Z,18.80
2019-03-26T01:10:12.184Z,16.80
2019-03-26T01:11:12.175Z,16.20
2019-03-26T01:12:12.207Z,18.40
2019-03-26T01:13:12.168Z,23.30
2019-03-26T01:14:12.144Z,18.00
2019-03-26T01:15:12.130Z,22.00
2019-03-26T01:16:12.128Z,19.70
2019-03-26T01:17:12.139Z,18.80
2019-03-26T01:18:12.227Z,16.60
2019-03-26T01:19:12.092Z,20.90
2019-03-26T01:20:12.075Z,19.90
2019-03-26T01:21:12.064Z,18.40
2019-03-26T01:22:12.066Z,21.90
2019-03-26T01:23:12.065Z,22.10
2019-03-26T01:24:12.042Z,17.40
2019-03-26T01:25:12.020Z,20.50
2019-03-26T01:26:12.017Z,21.80
2019-03-26T01:27:11.997Z,15.70
2019-03-26T01:28:12.020Z,17.10
2019-03-26T01:29:11.987Z,22.50
2019-03-26T01:30:11.979Z,18.70
2019-03-26T01:31:11.966Z,20.70
2019-03-26T01:32:11.954Z,18.20
2019-03-26T01:33:11.958Z,15.90
2019-03-26T01:34:11.937Z,22.80
2019-03-26T01:35:11.995Z,19.60
2019-03-26T01:36:11.966Z,20.90
2019-03-26T01:37:11.890Z,19.00
2019-03-26T01:38:11.908Z,18.20
2019-03-26T01:39:11.871Z,20.70
2019-03-26T01:40:11.858Z,20.70
2019-03-26T01:41:11.898Z,17.90
2019-03-26T01:42:11.836Z,21.40
2019-03-26T01:43:11.832Z,18.70
2019-03-26T01:44:11.815Z,21.40
2019-03-26T01:45:11.822Z,22.70
2019-03-26T01:46:11.816Z,18.80
2019-03-26T01:47:11.799Z,26.90
2019-03-26T01:48:11.788Z,20.30
2019-03-26T01:49:11.814Z,19.80
2019-03-26T01:50:11.776Z,18.30
2019-03-26T01:51:11.755Z,18.50
2019-03-26T01:52:11.741Z,23.00
2019-03-26T01:53:11.731Z,23.20
2019-03-26T01:54:11.750Z,23.10
2019-03-26T01:55:11.704Z,22.00
2019-03-26T01:56:11.733Z,22.90
2019-03-26T01:57:11.684Z,17.50
2019-03-26T01:58:11.678Z,25.40
2019-03-26T01:59:11.657Z,22.00
2019-03-26T02:00:11.648Z,22.30
2019-03-26T02:01:11.676Z,22.20
2019-03-26T02:02:11.627Z,18.30
2019-03-26T02:03:11.624Z,18.00
2019-03-26T02:04:11.638Z,23.50
2019-03-26T02:05:11.603Z,24.00
2019-03-26T02:06:11.588Z,18.80
2019-03-26T02:07:11.574Z,24.40
2019-03-26T02:08:11.573Z,21.00
2019-03-26T02:09:11.597Z,23.80
2019-03-26T02:10:11.549Z,17.70
2019-03-26T02:11:11.540Z,18.70
2019-03-26T02:12:11.518Z,23.50
2019-03-26T02:13:11.510Z,20.10
2019-03-26T02:14:11.542Z,18.50
2019-03-26T02:15:11.493Z,18.30
2019-03-26T02:16:11.565Z,22.80
2019-03-26T02:17:11.469Z,18.90
2019-03-26T02:18:11.480Z,22.50
2019-03-26T02:19:11.480Z,21.90
2019-03-26T02:20:11.440Z,17.30
2019-03-26T02:21:11.431Z,20.90
2019-03-26T02:22:11.412Z,23.80
2019-03-26T02:23:11.397Z,18.60
2019-03-26T02:24:11.419Z,19.70
2019-03-26T02:25:11.397Z,21.70
2019-03-26T02:26:11.394Z,21.00
2019-03-26T02:27:11.365Z,23.20
2019-03-26T02:28:11.345Z,18.00
2019-03-26T02:29:11.362Z,18.60
2019-03-26T02:30:11.326Z,23.60
2019-03-26T02:31:11.368Z,19.10
2019-03-26T02:32:11.314Z,21.00
2019-03-26T02:33:11.327Z,18.20
2019-03-26T02:34:11.282Z,19.70
2019-03-26T02:35:18.447Z,17.20
2019-03-26T02:36:11.279Z,20.40
2019-03-26T02:37:11.277Z,19.00
2019-03-26T02:38:11.266Z,20.00
2019-03-26T02:39:11.228Z,17.90
2019-03-26T02:40:11.222Z,20.70
2019-03-26T02:41:11.236Z,21.80
2019-03-26T02:42:11.206Z,15.80
2019-03-26T02:43:11.195Z,20.50
2019-03-26T02:44:11.177Z,21.00
2019-03-26T02:46:42.284Z,25.60
2019-03-26T02:47:43.340Z,18.80
2019-03-26T02:48:43.258Z,19.80
2019-03-26T02:49:43.215Z,20.60
2019-03-26T02:50:43.207Z,20.90
2019-03-26T02:51:43.184Z,18.40
2019-03-26T02:52:43.180Z,22.30
2019-03-26T02:53:43.172Z,17.10
2019-03-26T02:54:43.167Z,21.30
2019-03-26T02:55:43.176Z,16.90
2019-03-26T02:56:43.147Z,19.20
2019-03-26T02:57:43.134Z,20.30
2019-03-26T02:58:43.120Z,20.30
2019-03-26T02:59:43.119Z,18.30
2019-03-26T03:00:43.106Z,19.20
2019-03-26T03:01:43.657Z,17.80
2019-03-26T03:02:43.082Z,19.90
2019-03-26T03:03:43.065Z,15.90
2019-03-26T03:04:43.056Z,19.20
2019-03-26T03:05:43.080Z,18.60
2019-03-26T03:06:43.038Z,21.30
2019-03-26T03:07:43.023Z,21.30
2019-03-26T03:08:43.018Z,15.40
2019-03-26T03:09:43.644Z,17.80
2019-03-26T03:10:43.013Z,15.80
2019-03-26T03:11:43.002Z,18.60
2019-03-26T03:12:42.998Z,16.20
2019-03-26T03:13:42.968Z,14.60
2019-03-26T03:14:42.960Z,14.50
2019-03-26T03:15:42.953Z,17.50
2019-03-26T03:16:42.940Z,15.10
2019-03-26T03:17:42.911Z,14.80
2019-03-26T03:18:42.903Z,16.50
2019-03-26T03:19:42.895Z,13.80
2019-03-26T03:20:42.895Z,16.90
2019-03-26T03:21:42.890Z,17.50
2019-03-26T03:22:42.862Z,16.00
2019-03-26T03:23:42.858Z,15.50
2019-03-26T03:24:42.833Z,16.90
2019-03-26T03:25:42.863Z,15.40
2019-03-26T03:26:42.811Z,15.40
2019-03-26T03:27:42.811Z,18.30
2019-03-26T03:28:42.804Z,16.50
2019-03-26T03:29:42.781Z,15.60
2019-03-26T03:30:42.803Z,16.30
2019-03-26T03:31:42.762Z,14.80
2019-03-26T03:32:42.759Z,14.30
2019-03-26T03:33:42.906Z,15.20
2019-03-26T03:34:42.739Z,15.10
2019-03-26T03:35:52.143Z,16.20
2019-03-26T03:36:42.703Z,14.30
2019-03-26T03:37:42.693Z,15.60
2019-03-26T03:38:42.798Z,15.10
2019-03-26T03:39:42.683Z,14.70
2019-03-26T03:40:42.697Z,16.40
2019-03-26T03:41:42.664Z,13.40
2019-03-26T03:42:42.642Z,14.60
2019-03-26T03:43:42.643Z,13.50
2019-03-26T03:44:42.631Z,16.50
2019-03-26T03:45:42.627Z,10.10
2019-03-26T03:46:42.618Z,13.60
2019-03-26T03:47:42.591Z,14.00
2019-03-26T03:48:42.590Z,15.50
2019-03-26T03:49:42.565Z,15.10
2019-03-26T03:50:42.560Z,18.30
2019-03-26T03:51:42.572Z,14.00
2019-03-26T03:52:42.532Z,12.10
2019-03-26T03:53:42.533Z,14.40
2019-03-26T03:54:42.528Z,16.00
2019-03-26T03:55:42.516Z,14.70
2019-03-26T03:56:42.538Z,15.90
2019-03-26T03:57:42.491Z,14.80
2019-03-26T03:58:42.471Z,15.00
2019-03-26T03:59:42.468Z,18.30
2019-03-26T04:00:42.461Z,16.90
2019-03-26T04:01:42.485Z,16.60
2019-03-26T04:02:42.439Z,13.70
2019-03-26T04:03:42.422Z,16.80
2019-03-26T04:04:42.431Z,18.50
2019-03-26T04:05:42.440Z,17.40
2019-03-26T04:06:42.416Z,12.20
2019-03-26T04:07:42.375Z,16.00
2019-03-26T04:08:42.371Z,16.80
2019-03-26T04:09:42.350Z,14.90
2019-03-26T04:10:42.347Z,13.00
2019-03-26T04:11:42.400Z,20.00
2019-03-26T04:12:42.326Z,13.30
2019-03-26T04:13:42.355Z,18.50
2019-03-26T04:14:42.325Z,15.40
2019-03-26T04:15:42.317Z,16.00
2019-03-26T04:16:42.304Z,14.10
2019-03-26T04:17:42.278Z,14.20
2019-03-26T04:18:42.258Z,15.00
2019-03-26T04:19:42.249Z,16.30
2019-03-26T04:20:42.236Z,16.70
2019-03-26T04:21:42.237Z,16.80
2019-03-26T04:22:42.216Z,15.10
2019-03-26T04:23:42.205Z,16.40
2019-03-26T04:24:42.202Z,16.90
2019-03-26T04:25:42.183Z,16.00
2019-03-26T04:26:42.192Z,17.40
2019-03-26T04:27:42.158Z,16.70
2019-03-26T04:28:42.147Z,14.20
2019-03-26T04:29:42.137Z,15.30
2019-03-26T04:30:42.644Z,17.10
2019-03-26T04:31:42.134Z,14.10
2019-03-26T04:32:42.106Z,13.40
2019-03-26T04:33:42.102Z,15.70
2019-03-26T04:34:42.094Z,16.90
2019-03-26T04:35:42.076Z,16.90
2019-03-26T04:36:42.064Z,15.00
2019-03-26T04:37:42.071Z,12.40
2019-03-26T04:38:42.045Z,16.10
2019-03-26T04:39:42.055Z,17.50
2019-03-26T04:40:42.032Z,16.00
2019-03-26T04:41:42.012Z,14.30
2019-03-26T04:42:42.002Z,17.30
2019-03-26T04:43:42.001Z,15.00
2019-03-26T04:44:41.993Z,11.60
2019-03-26T04:45:41.998Z,18.30
2019-03-26T04:47:51.176Z,13.30
2019-03-26T04:48:52.158Z,13.90
2019-03-26T04:49:52.160Z,13.30
2019-03-26T04:50:52.124Z,12.80
2019-03-26T04:51:52.122Z,17.80
2019-03-26T04:52:52.123Z,14.30
2019-03-26T04:53:52.095Z,13.40
2019-03-26T04:54:52.099Z,16.40
2019-03-26T04:55:52.089Z,14.70
2019-03-26T04:56:52.091Z,13.90
2019-03-26T04:57:52.081Z,15.20
2019-03-26T04:58:52.053Z,13.40
2019-03-26T04:59:52.028Z,15.00
2019-03-26T05:00:52.034Z,17.40
2019-03-26T05:01:52.021Z,12.30
2019-03-26T05:02:52.010Z,15.50
2019-03-26T05:03:52.012Z,13.70
2019-03-26T05:04:51.978Z,13.50
2019-03-26T05:05:51.977Z,13.30
2019-03-26T05:06:51.966Z,15.50
2019-03-26T05:07:51.948Z,11.80
2019-03-26T05:08:51.956Z,16.50
2019-03-26T05:09:51.919Z,15.30
2019-03-26T05:10:51.928Z,15.50
2019-03-26T05:11:51.896Z,13.20
2019-03-26T05:12:51.885Z,14.50
2019-03-26T05:13:51.908Z,18.40
2019-03-26T05:14:51.878Z,14.60
2019-03-26T05:15:51.869Z,14.50
2019-03-26T05:16:51.869Z,15.90
2019-03-26T05:17:51.850Z,15.00
2019-03-26T05:18:51.847Z,15.90
2019-03-26T05:19:51.832Z,14.40
2019-03-26T05:20:51.817Z,18.10
2019-03-26T05:21:51.794Z,17.20
2019-03-26T05:22:51.797Z,16.90
2019-03-26T05:23:52.139Z,16.80
2019-03-26T05:24:51.759Z,14.00
2019-03-26T05:25:51.759Z,14.10
2019-03-26T05:26:51.754Z,15.70
2019-03-26T05:27:51.735Z,17.60
2019-03-26T05:28:51.779Z,14.30
2019-03-26T05:29:51.711Z,13.60
2019-03-26T05:30:51.701Z,15.00
2019-03-26T05:31:51.684Z,18.70
2019-03-26T05:32:51.696Z,15.00
2019-03-26T05:33:51.688Z,12.80
2019-03-26T05:34:51.666Z,13.50
2019-03-26T05:35:51.919Z,12.00
2019-03-26T05:36:51.969Z,16.20
2019-03-26T05:37:51.634Z,16.00
2019-03-26T05:38:51.629Z,15.60
2019-03-26T05:39:51.608Z,13.30
2019-03-26T05:40:51.599Z,14.90
2019-03-26T05:41:51.588Z,16.40
2019-03-26T05:42:51.578Z,13.80
2019-03-26T05:43:51.634Z,12.40
2019-03-26T05:44:51.559Z,14.50
2019-03-26T05:45:51.541Z,16.60
2019-03-26T05:46:51.530Z,12.10
2019-03-26T05:47:51.598Z,15.30
2019-03-26T05:48:51.523Z,15.40
2019-03-26T05:49:51.517Z,17.20
2019-03-26T05:50:51.508Z,12.50
2019-03-26T05:51:52.407Z,12.80
2019-03-26T05:52:51.520Z,17.10
2019-03-26T05:53:51.476Z,15.40
2019-03-26T05:54:51.530Z,15.20
2019-03-26T05:55:51.446Z,12.10
2019-03-26T05:56:51.435Z,14.80
2019-03-26T05:57:51.419Z,13.50
2019-03-26T05:58:51.448Z,18.80
2019-03-26T05:59:51.387Z,14.10
2019-03-26T06:00:51.397Z,12.80
2019-03-26T06:01:51.374Z,14.30
2019-03-26T06:02:51.374Z,16.40
2019-03-26T06:03:51.366Z,15.90
2019-03-26T06:04:51.339Z,11.80
2019-03-26T06:05:51.335Z,17.60
2019-03-26T06:07:03.894Z,13.70
2019-03-26T06:07:51.322Z,15.90
2019-03-26T06:08:51.341Z,14.50
2019-03-26T06:09:51.287Z,16.00
2019-03-26T06:10:51.283Z,15.10
2019-03-26T06:11:51.278Z,16.30
2019-03-26T06:12:51.274Z,13.50
2019-03-26T06:13:51.741Z,16.80
2019-03-26T06:14:51.269Z,16.60
2019-03-26T06:15:51.229Z,12.30
2019-03-26T06:16:51.235Z,18.40
2019-03-26T06:17:51.199Z,13.90
2019-03-26T06:18:51.195Z,11.30
2019-03-26T06:19:51.212Z,15.50
2019-03-26T06:20:51.163Z,14.50
2019-03-26T06:21:51.159Z,15.20
2019-03-26T06:22:51.153Z,18.70
2019-03-26T06:23:53.550Z,14.20
2019-03-26T06:24:51.154Z,16.00
2019-03-26T06:25:51.140Z,18.00
2019-03-26T06:26:51.103Z,14.30
2019-03-26T06:27:51.099Z,16.80
2019-03-26T06:28:51.078Z,12.40
2019-03-26T06:29:51.091Z,11.30
2019-03-26T06:30:51.056Z,14.20
2019-03-26T06:31:51.049Z,10.20
2019-03-26T06:32:51.035Z,12.10
2019-03-26T06:33:51.042Z,16.70
2019-03-26T06:34:51.035Z,19.80
2019-03-26T06:35:50.995Z,14.00
2019-03-26T06:36:51.007Z,15.00
2019-03-26T06:37:51.070Z,13.10
2019-03-26T06:38:50.975Z,15.60
2019-03-26T06:39:51.001Z,12.90
2019-03-26T06:40:50.961Z,12.90
2019-03-26T06:41:50.943Z,14.90
2019-03-26T06:42:50.946Z,11.60
2019-03-26T06:43:50.924Z,12.90
2019-03-26T06:44:50.966Z,17.00
2019-03-26T06:45:50.900Z,11.50
2019-03-26T06:46:50.890Z,15.30
2019-03-26T06:49:12.379Z,10.70
2019-03-26T06:50:13.382Z,11.80
2019-03-26T06:51:13.353Z,16.90
2019-03-26T06:52:13.348Z,14.40
2019-03-26T06:53:13.324Z,13.80
2019-03-26T06:54:13.308Z,13.00
2019-03-26T06:55:13.388Z,14.30
2019-03-26T06:56:13.343Z,15.40
2019-03-26T06:57:13.287Z,15.70
2019-03-26T06:58:13.277Z,14.20
2019-03-26T06:59:13.253Z,14.80
2019-03-26T07:00:13.319Z,12.70
2019-03-26T07:01:13.301Z,17.20
2019-03-26T07:02:13.264Z,15.10
2019-03-26T07:03:13.283Z,17.20
2019-03-26T07:04:13.214Z,18.60
2019-03-26T07:05:13.311Z,14.50
2019-03-26T07:06:13.194Z,15.40
2019-03-26T07:07:13.545Z,10.80
2019-03-26T07:08:13.451Z,16.20
2019-03-26T07:09:13.412Z,17.10
2019-03-26T07:10:13.155Z,12.80
2019-03-26T07:11:13.582Z,17.40
2019-03-26T07:12:13.124Z,15.30
2019-03-26T07:13:13.114Z,16.10
2019-03-26T07:14:13.111Z,15.30
2019-03-26T07:15:13.094Z,14.60
2019-03-26T07:16:13.116Z,12.70
2019-03-26T07:17:13.302Z,13.10
2019-03-26T07:18:13.055Z,15.30
2019-03-26T07:19:13.083Z,16.50
2019-03-26T07:20:13.041Z,14.00
2019-03-26T07:21:13.047Z,15.20
2019-03-26T07:22:13.013Z,13.70
2019-03-26T07:23:13.013Z,13.30
2019-03-26T07:24:12.990Z,15.30
2019-03-26T07:25:12.996Z,14.70
2019-03-26T07:26:13.001Z,16.40
2019-03-26T07:27:12.965Z,15.40
2019-03-26T07:28:12.959Z,14.80
2019-03-26T07:29:13.079Z,16.00
2019-03-26T07:30:12.967Z,13.40
2019-03-26T07:31:12.987Z,17.60
2019-03-26T07:32:13.287Z,16.90
2019-03-26T07:33:12.905Z,13.90
2019-03-26T07:34:12.877Z,16.60
2019-03-26T07:35:12.882Z,13.00
2019-03-26T07:36:12.968Z,11.70
2019-03-26T07:37:12.858Z,15.40
2019-03-26T07:38:12.882Z,15.40
2019-03-26T07:39:12.821Z,13.50
2019-03-26T07:40:12.824Z,15.00
2019-03-26T07:41:12.825Z,15.00
2019-03-26T07:42:12.808Z,10.90
2019-03-26T07:43:12.790Z,11.70
2019-03-26T07:44:12.800Z,12.50
2019-03-26T07:45:12.792Z,14.90
2019-03-26T07:46:12.779Z,14.10
2019-03-26T07:47:12.740Z,13.20
2019-03-26T07:48:12.739Z,10.00
2019-03-26T07:49:13.049Z,12.10
2019-03-26T07:50:14.035Z,12.20
2019-03-26T07:51:12.726Z,13.70
2019-03-26T07:52:15.533Z,11.90
2019-03-26T07:53:12.669Z,16.30
2019-03-26T07:54:12.729Z,10.80
2019-03-26T07:55:12.652Z,12.50
2019-03-26T07:56:15.946Z,9.60
2019-03-26T07:57:12.640Z,10.80
2019-03-26T07:58:12.638Z,15.60
2019-03-26T07:59:12.649Z,11.20
2019-03-26T08:00:12.605Z,11.60
2019-03-26T08:01:12.669Z,13.40
2019-03-26T08:02:12.672Z,13.30
2019-03-26T08:03:12.569Z,13.50
2019-03-26T08:04:12.812Z,14.30
2019-03-26T08:05:12.545Z,13.20
2019-03-26T08:06:12.550Z,16.50
2019-03-26T08:07:12.551Z,11.90
2019-03-26T08:08:12.512Z,13.40
2019-03-26T08:09:12.532Z,12.60
2019-03-26T08:10:12.568Z,9.70
2019-03-26T08:11:12.489Z,12.20
2019-03-26T08:12:12.483Z,12.70
2019-03-26T08:13:12.483Z,10.80
2019-03-26T08:14:12.455Z,13.70
2019-03-26T08:15:12.464Z,15.00
2019-03-26T08:16:12.461Z,11.70
2019-03-26T08:17:12.454Z,11.80
2019-03-26T08:18:12.467Z,15.20
2019-03-26T08:19:12.436Z,10.60
2019-03-26T08:20:12.788Z,13.50
2019-03-26T08:21:12.377Z,14.10
2019-03-26T08:22:12.390Z,13.00
2019-03-26T08:23:12.364Z,12.30
2019-03-26T08:24:12.342Z,15.40
2019-03-26T08:25:12.333Z,14.60
2019-03-26T08:26:12.323Z,13.50
2019-03-26T08:27:12.416Z,10.90
2019-03-26T08:28:12.359Z,10.80
2019-03-26T08:29:12.283Z,14.80
2019-03-26T08:30:12.299Z,11.70
2019-03-26T08:31:12.309Z,10.40
2019-03-26T08:32:12.286Z,11.70
2019-03-26T08:33:12.914Z,10.40
2019-03-26T08:34:12.269Z,8.70
2019-03-26T08:35:12.230Z,11.80
2019-03-26T08:36:12.234Z,10.70
2019-03-26T08:37:12.222Z,13.00
2019-03-26T08:38:13.401Z,10.50
2019-03-26T08:39:12.182Z,15.30
2019-03-26T08:40:12.172Z,11.90
2019-03-26T08:41:12.177Z,13.00
2019-03-26T08:42:12.233Z,10.00
2019-03-26T08:43:12.129Z,13.80
2019-03-26T08:44:12.133Z,12.70
2019-03-26T08:45:12.745Z,12.70
2019-03-26T08:46:12.322Z,14.60
2019-03-26T08:47:12.113Z,12.20
2019-03-26T08:48:12.084Z,14.30
2019-03-26T08:50:21.617Z,12.40
2019-03-26T08:51:22.800Z,12.10
2019-03-26T08:52:22.618Z,10.70
2019-03-26T08:53:22.595Z,11.90
2019-03-26T08:54:22.581Z,13.50
2019-03-26T08:55:22.725Z,11.50
2019-03-26T08:56:22.883Z,13.50
2019-03-26T08:57:22.559Z,15.80
2019-03-26T08:58:22.539Z,13.50
2019-03-26T08:59:22.594Z,11.90
2019-03-26T09:00:22.514Z,12.40
2019-03-26T09:01:22.509Z,15.50
2019-03-26T09:02:22.507Z,11.40
2019-03-26T09:03:22.479Z,16.40
2019-03-26T09:04:22.483Z,14.60
2019-03-26T09:05:22.506Z,12.30
2019-03-26T09:06:22.464Z,12.90
2019-03-26T09:07:22.456Z,13.20
2019-03-26T09:08:25.567Z,12.00
2019-03-26T09:09:22.434Z,13.20
2019-03-26T09:10:22.405Z,11.60
2019-03-26T09:11:22.390Z,8.00
2019-03-26T09:12:22.428Z,11.20
2019-03-26T09:13:22.395Z,9.40
2019-03-26T09:14:22.354Z,10.20
2019-03-26T09:15:22.351Z,11.60
2019-03-26T09:16:22.349Z,12.70
2019-03-26T09:17:22.356Z,12.00
2019-03-26T09:18:22.361Z,10.70
2019-03-26T09:19:22.335Z,11.00
2019-03-26T09:20:22.294Z,11.80
2019-03-26T09:21:22.281Z,10.50
2019-03-26T09:22:22.294Z,9.10
2019-03-26T09:23:22.254Z,7.10
2019-03-26T09:24:22.244Z,13.20
2019-03-26T09:25:22.233Z,11.60
2019-03-26T09:26:22.241Z,8.80
2019-03-26T09:27:22.265Z,9.30
2019-03-26T09:28:22.204Z,9.60
2019-03-26T09:29:22.200Z,10.80
2019-03-26T09:30:22.194Z,12.70
2019-03-26T09:31:22.170Z,10.80
2019-03-26T09:32:22.175Z,8.90
2019-03-26T09:33:22.161Z,7.20
2019-03-26T09:34:22.132Z,9.40
2019-03-26T09:35:22.155Z,8.40
2019-03-26T09:36:22.200Z,10.50
2019-03-26T09:37:22.830Z,10.40
2019-03-26T09:38:22.098Z,9.20
2019-03-26T09:39:22.115Z,9.90
2019-03-26T09:40:22.095Z,8.70
2019-03-26T09:41:22.076Z,8.70
2019-03-26T09:42:22.190Z,10.90
2019-03-26T09:43:22.105Z,10.30
2019-03-26T09:44:22.042Z,7.60
2019-03-26T09:45:22.024Z,11.10
2019-03-26T09:46:22.018Z,11.30
2019-03-26T09:47:22.027Z,13.50
2019-03-26T09:48:21.997Z,8.90
2019-03-26T09:49:21.983Z,11.00
2019-03-26T09:50:22.025Z,10.50
2019-03-26T09:51:21.984Z,10.70
2019-03-26T09:52:22.026Z,11.80
2019-03-26T09:53:21.938Z,10.60
2019-03-26T09:54:21.932Z,11.60
2019-03-26T09:55:21.910Z,11.30
2019-03-26T09:56:29.304Z,7.20
2019-03-26T09:57:21.944Z,10.90
2019-03-26T09:58:21.922Z,12.30
2019-03-26T09:59:21.874Z,9.10
2019-03-26T10:00:21.868Z,10.20
2019-03-26T10:01:21.864Z,10.30
2019-03-26T10:02:21.829Z,6.90
2019-03-26T10:03:21.847Z,9.40
2019-03-26T10:04:21.833Z,9.50
2019-03-26T10:05:21.804Z,13.60
2019-03-26T10:06:23.590Z,10.70
2019-03-26T10:07:22.103Z,8.60
2019-03-26T10:08:21.856Z,12.00
2019-03-26T10:09:21.784Z,10.10
2019-03-26T10:10:21.757Z,8.60
2019-03-26T10:11:21.735Z,11.20
2019-03-26T10:12:21.726Z,9.50
2019-03-26T10:13:21.797Z,10.50
2019-03-26T10:14:21.721Z,10.50
2019-03-26T10:15:21.719Z,10.10
2019-03-26T10:16:21.703Z,8.40
2019-03-26T10:17:21.670Z,11.90
2019-03-26T10:18:21.708Z,10.30
2019-03-26T10:19:21.682Z,8.60
2019-03-26T10:20:21.633Z,9.80
2019-03-26T10:21:21.640Z,9.20
2019-03-26T10:22:21.623Z,9.10
2019-03-26T10:23:21.635Z,8.30
2019-03-26T10:24:21.720Z,8.90
2019-03-26T10:25:21.595Z,9.70
2019-03-26T10:26:21.579Z,11.10
2019-03-26T10:27:21.566Z,11.00
2019-03-26T10:28:22.048Z,11.20
2019-03-26T10:29:29.995Z,12.00
2019-03-26T10:30:24.672Z,10.10
2019-03-26T10:31:21.660Z,9.50
2019-03-26T10:32:21.513Z,9.80
2019-03-26T10:33:21.598Z,11.30
2019-03-26T10:34:21.487Z,9.00
2019-03-26T10:35:21.890Z,7.60
2019-03-26T10:36:21.463Z,8.20
2019-03-26T10:37:21.512Z,6.20
2019-03-26T10:38:21.459Z,10.50
2019-03-26T10:39:21.447Z,6.30
2019-03-26T10:40:21.510Z,9.30
2019-03-26T10:41:21.479Z,6.30
2019-03-26T10:42:21.399Z,6.70
2019-03-26T10:43:21.424Z,5.80
2019-03-26T10:44:21.514Z,5.60
2019-03-26T10:45:21.367Z,8.00
2019-03-26T10:46:21.578Z,7.30
2019-03-26T10:47:21.349Z,8.00
2019-03-26T10:48:21.387Z,7.30
2019-03-26T10:49:21.346Z,5.60
2019-03-26T10:51:30.545Z,7.10
2019-03-26T10:52:34.296Z,7.30
2019-03-26T10:53:31.528Z,9.40
2019-03-26T10:54:31.500Z,7.30
2019-03-26T10:55:31.502Z,9.60
2019-03-26T10:56:32.712Z,10.00
2019-03-26T10:57:31.554Z,6.70
2019-03-26T10:58:31.499Z,9.40
2019-03-26T10:59:31.439Z,10.00
2019-03-26T11:00:31.447Z,7.30
2019-03-26T11:01:31.455Z,9.00
2019-03-26T11:02:31.421Z,8.70
2019-03-26T11:03:31.446Z,7.60
2019-03-26T11:04:31.401Z,4.80
2019-03-26T11:05:31.379Z,6.30
2019-03-26T11:06:31.382Z,8.10
2019-03-26T11:07:31.379Z,9.20
2019-03-26T11:08:31.364Z,8.00
2019-03-26T11:09:31.336Z,8.30
2019-03-26T11:10:31.446Z,7.70
2019-03-26T11:11:31.309Z,10.00
2019-03-26T11:12:31.301Z,7.40
2019-03-26T11:13:31.353Z,7.10
2019-03-26T11:14:31.927Z,9.20
2019-03-26T11:15:31.312Z,8.60
2019-03-26T11:16:31.298Z,8.90
2019-03-26T11:17:31.270Z,10.30
2019-03-26T11:18:31.312Z,9.60
2019-03-26T11:19:31.238Z,11.30
2019-03-26T11:20:31.219Z,11.00
2019-03-26T11:21:31.260Z,10.10
2019-03-26T11:22:31.200Z,7.80
2019-03-26T11:23:32.208Z,8.30
2019-03-26T11:24:31.169Z,11.90
2019-03-26T11:25:31.154Z,9.90
2019-03-26T11:26:31.166Z,14.30
2019-03-26T11:27:31.149Z,9.00
2019-03-26T11:28:31.188Z,11.10
2019-03-26T11:29:31.127Z,8.70
2019-03-26T11:30:31.095Z,9.00
2019-03-26T11:31:31.099Z,10.30
2019-03-26T11:32:31.085Z,11.30
2019-03-26T11:33:31.127Z,10.50
2019-03-26T11:34:31.122Z,8.80
2019-03-26T11:35:31.097Z,13.70
2019-03-26T11:36:31.031Z,8.90
2019-03-26T11:37:31.107Z,9.70
2019-03-26T11:38:31.057Z,11.70
2019-03-26T11:39:33.064Z,8.50
2019-03-26T11:40:30.988Z,8.80
2019-03-26T11:41:31.000Z,8.80
2019-03-26T11:42:30.970Z,11.90
2019-03-26T11:43:31.864Z,11.10
2019-03-26T11:44:31.012Z,10.30
2019-03-26T11:45:30.940Z,9.90
2019-03-26T11:46:30.927Z,8.70
2019-03-26T11:47:30.926Z,9.60
2019-03-26T11:48:30.955Z,10.60
2019-03-26T11:49:30.959Z,8.10
2019-03-26T11:50:30.881Z,13.30
2019-03-26T11:51:30.884Z,10.90
2019-03-26T11:52:30.849Z,8.50
2019-03-26T11:53:30.851Z,8.70
2019-03-26T11:54:31.188Z,8.40
2019-03-26T11:55:30.825Z,9.90
2019-03-26T11:56:30.831Z,9.80
2019-03-26T11:57:30.869Z,11.30
2019-03-26T11:58:31.168Z,13.10
2019-03-26T11:59:30.780Z,10.90
2019-03-26T12:00:30.809Z,9.90
2019-03-26T12:01:30.778Z,9.90
2019-03-26T12:02:30.913Z,10.50
2019-03-26T12:03:30.766Z,11.50
2019-03-26T12:04:30.770Z,11.60
2019-03-26T12:05:30.789Z,7.20
2019-03-26T12:06:30.730Z,8.30
2019-03-26T12:07:30.717Z,9.40
2019-03-26T12:08:30.709Z,12.60
2019-03-26T12:09:30.743Z,13.30
2019-03-26T12:10:30.788Z,12.70
2019-03-26T12:11:30.702Z,11.10
2019-03-26T12:12:30.658Z,11.30
2019-03-26T12:13:30.751Z,10.90
2019-03-26T12:14:30.701Z,14.30
2019-03-26T12:15:30.617Z,17.30
2019-03-26T12:16:30.620Z,12.10
2019-03-26T12:17:30.584Z,13.70
2019-03-26T12:18:30.691Z,11.00
2019-03-26T12:19:30.581Z,14.00
2019-03-26T12:20:30.586Z,12.20
2019-03-26T12:21:30.653Z,13.50
2019-03-26T12:22:31.520Z,9.40
2019-03-26T12:23:30.541Z,9.60
2019-03-26T12:24:30.570Z,18.50
2019-03-26T12:25:30.526Z,11.40
2019-03-26T12:26:30.511Z,11.00
2019-03-26T12:27:30.509Z,14.60
2019-03-26T12:28:30.467Z,12.40
2019-03-26T12:29:30.496Z,10.50
2019-03-26T12:30:30.463Z,9.80
2019-03-26T12:31:30.478Z,12.00
2019-03-26T12:32:30.461Z,10.70
2019-03-26T12:33:30.459Z,11.70
2019-03-26T12:34:30.436Z,9.70
2019-03-26T12:35:30.402Z,13.40
2019-03-26T12:36:39.988Z,9.10
2019-03-26T12:37:30.375Z,10.90
2019-03-26T12:38:30.350Z,11.70
2019-03-26T12:39:30.398Z,11.50
2019-03-26T12:40:30.394Z,9.20
2019-03-26T12:41:30.320Z,10.40
2019-03-26T12:42:30.366Z,10.20
2019-03-26T12:43:30.348Z,8.70
2019-03-26T12:44:30.320Z,8.50
2019-03-26T12:45:30.279Z,10.10
2019-03-26T12:46:30.282Z,9.60
2019-03-26T12:47:30.303Z,9.20
2019-03-26T12:48:30.283Z,7.80
2019-03-26T12:49:30.246Z,9.70
2019-03-26T12:50:32.148Z,6.90
2019-03-26T12:54:06.979Z,6.80
2019-03-26T12:55:07.931Z,9.40
2019-03-26T12:56:07.923Z,10.40
2019-03-26T12:57:07.913Z,9.20
2019-03-26T12:58:07.946Z,8.30
2019-03-26T12:59:07.878Z,7.90
2019-03-26T13:00:07.892Z,9.70
2019-03-26T13:01:07.875Z,10.00
2019-03-26T13:02:07.866Z,7.80
2019-03-26T13:03:07.931Z,9.70
2019-03-26T13:04:12.919Z,7.40
2019-03-26T13:05:07.812Z,10.20
2019-03-26T13:06:07.825Z,8.60
2019-03-26T13:07:07.799Z,7.40
2019-03-26T13:08:07.813Z,7.20
2019-03-26T13:09:07.806Z,8.10
2019-03-26T13:10:13.308Z,9.70
2019-03-26T13:11:07.758Z,9.20
2019-03-26T13:12:07.735Z,13.00
2019-03-26T13:13:07.757Z,9.30
2019-03-26T13:14:07.729Z,9.40
2019-03-26T13:15:07.713Z,11.30
2019-03-26T13:16:07.715Z,9.20